AirNav   Phillips 66 Aviation Fuel
 
 1001 users online  

08NC Whiteheart Farm Airport
Lewisville, North Carolina, USA

GOING TO LEWISVILLE?


FAA INFORMATION EFFECTIVE 12 SEPTEMBER 2019

Location

FAA Identifier: 08NC
Lat/Long: 36-04-03.4930N 080-27-56.2030W
36-04.058217N 080-27.936717W
36.0676369,-80.4656119
(estimated)
Elevation: 750 ft. / 229 m (estimated)
Variation: 06W (1990)
From city: 3 miles SW of LEWISVILLE, NC
Time zone: UTC -4 (UTC -5 during Standard Time)
Zip code: 27023

Airport Operations

Airport use: Private use. Permission required prior to landing
Activation date: 06/1993
Control tower: no
ARTCC: ATLANTA CENTER
FSS: RALEIGH FLIGHT SERVICE STATION
Attendance: UNATNDD
Wind indicator: yes
Segmented circle: no

Airport Communications

WX ASOS at INT (12 nm E): PHONE 336-661-3096
WX AWOS-3 at EXX (19 nm SE): 119.825 (336-956-2967)

Nearby radio navigation aids

VOR radial/distance  VOR name  Freq  Var
GSOr276/23.8GREENSBORO VORTAC116.2003W
BZMr078/39.5BARRETTS MOUNTAIN VOR/DME110.8006W

 
NDB name  Hdg/Dist  Freq  Var  ID
REENO276/14.531707WIN .. -.
ZEPHYR147/19.332608WZEF --.. . ..-.
SLAMMER248/38.942307WSIF ... .. ..-.

Airport Services

Runway Information

Runway 18/36

Dimensions: 3200 x 50 ft. / 975 x 15 m
Surface: turf
RUNWAY 18  RUNWAY 36
Traffic pattern: leftleft
Displaced threshold: 350 ft.no
Obstructions: 60 ft. treesnone

Airport Ownership and Management from official FAA records

Ownership: Privately-owned
Owner: WILLIAM. H. WHITEHEART
210 S CHERRY ST
WINSTON SALEM, NC 27101-5231
Phone 336-817-1555
Manager: WILLIAM. H. WHITEHEART
210 S CHERRY ST
WINSTON SALEM, NC 27101-5231
Phone 336-817-1555

Airport Operational Statistics

Aircraft based on the field: 1
Single engine airplanes: 1
    

Additional Remarks

FOR CD CTC ATLANTA ARTCC AT 770-210-7692.

Instrument Procedures

There are no published instrument procedures at 08NC.

Some nearby airports with instrument procedures:

8A7 - Twin Lakes Airport (9 nm S)
KINT - Smith Reynolds Airport (12 nm E)
KEXX - Davidson County Airport (19 nm SE)
KZEF - Elkin Municipal Airport (20 nm NW)
N63 - Meadow Brook Field Airport (21 nm NE)
 
Loc | Ops | Rwys | IFR | FBO | Links
Com | Nav | Svcs | Stats | Notes
Area around 08NC (Whiteheart Farm Airport)
 
Road maps at: MapQuest Bing Google
 
Aerial photo
No photo
 
Sectional chart

 
Airport distance calculator
Flying to Whiteheart Farm Airport? Find the distance to fly.

From to 08NC

Sunrise and sunset
Times for 21-Sep-2019
 Local
(UTC-4)
 Zulu
(UTC)
Morning civil twilight06:4410:44
Sunrise07:1011:10
Sunset19:2023:20
Evening civil twilight19:4623:46

Current date and time
Zulu (UTC)  21-Sep-2019 18:30:27
Local (UTC-4)  21-Sep-2019 14:30:27
 
METAR
KINT 
13nm E 
211754Z 00000KT 10SM CLR 29/16 A3027 RMK AO2 SLP240 T02940161 10300 20161 58018
KEXX 
19nm SE 
211815Z AUTO 19004KT 10SM CLR 30/16 A3025 RMK AO2 T02990158
KMWK 
24nm N 
211815Z AUTO 07008KT 10SM BKN050 29/19 A3028 RMK AO2 T02920193
KGSO 
25nm E 
211754Z VRB04KT 10SM CLR 29/17 A3026 RMK AO2 SLP235 T02940172 10300 20161 58017
KRUQ 
25nm S 
211815Z AUTO 00000KT 10SM CLR 29/15 A3025 RMK AO2 T02880146
TAF
KINT 
13nm E 
211720Z 2118/2218 25006KT P6SM SKC FM212000 24006KT P6SM VCTS SCT060CB FM220100 00000KT P6SM FEW100
NOTAMs
Click for the latest NOTAMs
NOTAMs are issued by the DoD/FAA and will open in a separate window not controlled by AirNav.

 

 
 

Would you like to see your business listed on this page?

 If your business provides an interesting product or service to pilots, flight crews, aircraft, or users of the Whiteheart Farm Airport, you should consider listing it here.  To start the listing process, click on the button below
 
Add a business
 

Other Pages about Whiteheart Farm Airport

Update a link
 
Copyright © AirNav, LLC. All rights reserved. Privacy Policy  Contact